sensor_id;sensor_type;location;lat;lon;timestamp;pressure;altitude;pressure_sealevel;temperature;humidity
72721;BME280;60835;50.974;10.322;2023-04-21T00:01:18;96097.81;;;8.21;100.00
72721;BME280;60835;50.974;10.322;2023-04-21T00:03:44;96098.59;;;8.15;100.00
72721;BME280;60835;50.974;10.322;2023-04-21T00:06:13;96089.03;;;8.08;100.00
72721;BME280;60835;50.974;10.322;2023-04-21T00:08:40;96080.94;;;8.09;100.00
72721;BME280;60835;50.974;10.322;2023-04-21T00:11:07;96070.38;;;8.03;100.00
72721;BME280;60835;50.974;10.322;2023-04-21T00:13:36;96057.44;;;8.08;100.00
72721;BME280;60835;50.974;10.322;2023-04-21T00:16:04;96030.28;;;8.01;100.00
72721;BME280;60835;50.974;10.322;2023-04-21T00:18:31;96017.50;;;7.97;100.00
72721;BME280;60835;50.974;10.322;2023-04-21T00:20:57;96002.31;;;7.99;100.00
72721;BME280;60835;50.974;10.322;2023-04-21T00:23:24;95991.78;;;7.93;100.00
72721;BME280;60835;50.974;10.322;2023-04-21T00:25:50;95972.75;;;7.91;100.00
72721;BME280;60835;50.974;10.322;2023-04-21T00:28:17;95958.34;;;7.87;100.00
72721;BME280;60835;50.974;10.322;2023-04-21T00:30:44;95920.88;;;7.85;100.00
72721;BME280;60835;50.974;10.322;2023-04-21T00:33:11;95884.81;;;7.79;100.00
72721;BME280;60835;50.974;10.322;2023-04-21T00:35:38;95877.31;;;7.76;100.00
72721;BME280;60835;50.974;10.322;2023-04-21T00:38:04;95853.63;;;7.69;100.00
72721;BME280;60835;50.974;10.322;2023-04-21T00:40:31;95829.13;;;7.69;100.00
72721;BME280;60835;50.974;10.322;2023-04-21T00:42:57;95820.44;;;7.62;100.00
72721;BME280;60835;50.974;10.322;2023-04-21T00:45:24;95794.13;;;7.62;100.00
72721;BME280;60835;50.974;10.322;2023-04-21T00:47:51;95779.72;;;7.58;100.00
72721;BME280;60835;50.974;10.322;2023-04-21T00:50:18;95761.72;;;7.55;100.00
72721;BME280;60835;50.974;10.322;2023-04-21T00:52:44;95737.22;;;7.48;100.00
72721;BME280;60835;50.974;10.322;2023-04-21T00:55:12;95705.47;;;7.43;100.00
72721;BME280;60835;50.974;10.322;2023-04-21T00:57:39;95677.34;;;7.43;100.00
72721;BME280;60835;50.974;10.322;2023-04-21T01:00:06;95658.91;;;7.36;100.00
72721;BME280;60835;50.974;10.322;2023-04-21T01:02:34;95624.53;;;7.31;100.00
72721;BME280;60835;50.974;10.322;2023-04-21T01:05:04;95599.06;;;7.32;100.00
72721;BME280;60835;50.974;10.322;2023-04-21T01:07:34;95575.19;;;7.27;100.00
72721;BME280;60835;50.974;10.322;2023-04-21T01:10:02;95555.97;;;7.26;100.00
72721;BME280;60835;50.974;10.322;2023-04-21T01:12:28;95530.28;;;7.28;100.00
72721;BME280;60835;50.974;10.322;2023-04-21T01:14:55;95513.31;;;7.24;100.00
72721;BME280;60835;50.974;10.322;2023-04-21T01:17:22;95495.50;;;7.26;100.00
72721;BME280;60835;50.974;10.322;2023-04-21T01:19:48;95487.41;;;7.21;100.00
72721;BME280;60835;50.974;10.322;2023-04-21T01:22:16;95461.13;;;7.21;100.00
72721;BME280;60835;50.974;10.322;2023-04-21T01:24:44;95450.22;;;7.18;100.00
72721;BME280;60835;50.974;10.322;2023-04-21T01:27:13;95433.44;;;7.12;100.00
72721;BME280;60835;50.974;10.322;2023-04-21T01:29:41;95418.09;;;7.09;100.00
72721;BME280;60835;50.974;10.322;2023-04-21T01:32:09;95398.47;;;7.05;100.00
72721;BME280;60835;50.974;10.322;2023-04-21T01:34:38;95372.00;;;7.07;100.00
72721;BME280;60835;50.974;10.322;2023-04-21T01:37:08;95365.31;;;7.04;100.00
72721;BME280;60835;50.974;10.322;2023-04-21T01:39:39;95354.03;;;6.97;100.00
72721;BME280;60835;50.974;10.322;2023-04-21T01:42:05;95335.44;;;6.92;100.00
72721;BME280;60835;50.974;10.322;2023-04-21T01:44:32;95321.13;;;6.88;100.00
72721;BME280;60835;50.974;10.322;2023-04-21T01:46:59;95296.25;;;6.91;100.00
72721;BME280;60835;50.974;10.322;2023-04-21T01:49:26;95276.84;;;6.92;100.00
72721;BME280;60835;50.974;10.322;2023-04-21T01:51:52;95267.97;;;6.86;100.00
72721;BME280;60835;50.974;10.322;2023-04-21T01:54:20;95243.31;;;6.87;100.00
72721;BME280;60835;50.974;10.322;2023-04-21T01:56:47;95233.44;;;6.83;100.00
72721;BME280;60835;50.974;10.322;2023-04-21T01:59:13;95214.19;;;6.89;100.00
72721;BME280;60835;50.974;10.322;2023-04-21T02:01:40;95200.28;;;6.88;100.00
72721;BME280;60835;50.974;10.322;2023-04-21T02:04:07;95195.22;;;6.87;100.00
72721;BME280;60835;50.974;10.322;2023-04-21T02:06:33;95186.34;;;6.81;100.00
72721;BME280;60835;50.974;10.322;2023-04-21T02:09:03;95167.53;;;6.84;100.00
72721;BME280;60835;50.974;10.322;2023-04-21T02:11:29;95169.56;;;6.82;100.00
72721;BME280;60835;50.974;10.322;2023-04-21T02:13:56;95151.34;;;6.87;100.00
72721;BME280;60835;50.974;10.322;2023-04-21T02:16:23;95143.88;;;6.84;100.00
72721;BME280;60835;50.974;10.322;2023-04-21T02:18:53;95146.50;;;6.84;100.00
72721;BME280;60835;50.974;10.322;2023-04-21T02:21:23;95137.00;;;6.83;100.00
72721;BME280;60835;50.974;10.322;2023-04-21T02:23:50;95137.28;;;6.75;100.00
72721;BME280;60835;50.974;10.322;2023-04-21T02:26:17;95129.78;;;6.79;100.00
72721;BME280;60835;50.974;10.322;2023-04-21T02:28:44;95135.06;;;6.72;100.00
72721;BME280;60835;50.974;10.322;2023-04-21T02:31:11;95136.50;;;6.68;100.00
72721;BME280;60835;50.974;10.322;2023-04-21T02:33:37;95146.00;;;6.62;100.00
72721;BME280;60835;50.974;10.322;2023-04-21T02:36:04;95144.84;;;6.52;100.00
72721;BME280;60835;50.974;10.322;2023-04-21T02:38:31;95142.84;;;6.54;100.00
72721;BME280;60835;50.974;10.322;2023-04-21T02:40:58;95126.66;;;6.57;100.00
72721;BME280;60835;50.974;10.322;2023-04-21T02:43:24;95138.59;;;6.53;100.00
72721;BME280;60835;50.974;10.322;2023-04-21T02:45:51;95129.50;;;6.49;100.00
72721;BME280;60835;50.974;10.322;2023-04-21T02:48:18;95124.25;;;6.49;100.00
72721;BME280;60835;50.974;10.322;2023-04-21T02:50:48;95104.06;;;6.49;100.00
72721;BME280;60835;50.974;10.322;2023-04-21T02:53:16;95106.91;;;6.48;100.00
72721;BME280;60835;50.974;10.322;2023-04-21T02:55:42;95092.97;;;6.54;100.00
72721;BME280;60835;50.974;10.322;2023-04-21T02:58:10;95094.97;;;6.52;100.00
72721;BME280;60835;50.974;10.322;2023-04-21T03:00:37;95092.97;;;6.54;100.00
72721;BME280;60835;50.974;10.322;2023-04-21T03:03:04;95098.41;;;6.52;100.00
72721;BME280;60835;50.974;10.322;2023-04-21T03:05:31;95084.22;;;6.60;100.00
72721;BME280;60835;50.974;10.322;2023-04-21T03:07:57;95106.84;;;6.61;100.00
72721;BME280;60835;50.974;10.322;2023-04-21T03:10:24;95102.25;;;6.56;100.00
72721;BME280;60835;50.974;10.322;2023-04-21T03:12:50;95110.47;;;6.60;100.00
72721;BME280;60835;50.974;10.322;2023-04-21T03:15:18;95118.19;;;6.55;100.00
72721;BME280;60835;50.974;10.322;2023-04-21T03:17:45;95119.38;;;6.59;100.00
72721;BME280;60835;50.974;10.322;2023-04-21T03:20:11;95135.34;;;6.57;100.00
72721;BME280;60835;50.974;10.322;2023-04-21T03:22:38;95137.16;;;6.57;100.00
72721;BME280;60835;50.974;10.322;2023-04-21T03:25:05;95129.91;;;6.59;100.00
72721;BME280;60835;50.974;10.322;2023-04-21T03:27:33;95136.31;;;6.63;100.00
72721;BME280;60835;50.974;10.322;2023-04-21T03:29:59;95145.81;;;6.64;100.00
72721;BME280;60835;50.974;10.322;2023-04-21T03:32:26;95159.31;;;6.67;100.00
72721;BME280;60835;50.974;10.322;2023-04-21T03:34:53;95173.06;;;6.69;100.00
72721;BME280;60835;50.974;10.322;2023-04-21T03:37:20;95182.78;;;6.69;100.00
72721;BME280;60835;50.974;10.322;2023-04-21T03:39:46;95183.13;;;6.72;100.00
72721;BME280;60835;50.974;10.322;2023-04-21T03:42:13;95190.22;;;6.72;100.00
72721;BME280;60835;50.974;10.322;2023-04-21T03:44:40;95206.00;;;6.72;100.00
72721;BME280;60835;50.974;10.322;2023-04-21T03:47:07;95216.69;;;6.70;100.00
72721;BME280;60835;50.974;10.322;2023-04-21T03:49:33;95231.63;;;6.70;100.00
72721;BME280;60835;50.974;10.322;2023-04-21T03:52:00;95238.09;;;6.74;100.00
72721;BME280;60835;50.974;10.322;2023-04-21T03:54:27;95246.59;;;6.76;100.00
72721;BME280;60835;50.974;10.322;2023-04-21T03:56:53;95257.28;;;6.81;100.00
72721;BME280;60835;50.974;10.322;2023-04-21T03:59:20;95286.56;;;6.78;100.00
72721;BME280;60835;50.974;10.322;2023-04-21T04:01:47;95294.03;;;6.81;100.00
72721;BME280;60835;50.974;10.322;2023-04-21T04:04:13;95315.06;;;6.81;100.00
72721;BME280;60835;50.974;10.322;2023-04-21T04:06:41;95337.91;;;6.81;100.00
72721;BME280;60835;50.974;10.322;2023-04-21T04:09:07;95358.53;;;6.77;100.00
72721;BME280;60835;50.974;10.322;2023-04-21T04:11:34;95367.41;;;6.83;100.00
72721;BME280;60835;50.974;10.322;2023-04-21T04:14:01;95386.84;;;6.75;100.00
72721;BME280;60835;50.974;10.322;2023-04-21T04:16:28;95403.00;;;6.72;100.00
72721;BME280;60835;50.974;10.322;2023-04-21T04:18:55;95417.94;;;6.71;100.00
72721;BME280;60835;50.974;10.322;2023-04-21T04:21:22;95432.91;;;6.71;100.00
72721;BME280;60835;50.974;10.322;2023-04-21T04:23:49;95439.34;;;6.62;100.00
72721;BME280;60835;50.974;10.322;2023-04-21T04:26:17;95448.66;;;6.58;100.00
72721;BME280;60835;50.974;10.322;2023-04-21T04:28:44;95446.22;;;6.63;100.00
72721;BME280;60835;50.974;10.322;2023-04-21T04:31:11;95451.88;;;6.60;100.00
72721;BME280;60835;50.974;10.322;2023-04-21T04:33:42;95457.34;;;6.52;100.00
72721;BME280;60835;50.974;10.322;2023-04-21T04:36:09;95449.28;;;6.53;100.00
72721;BME280;60835;50.974;10.322;2023-04-21T04:38:37;95447.66;;;6.59;100.00
72721;BME280;60835;50.974;10.322;2023-04-21T04:41:04;95441.38;;;6.34;100.00
72721;BME280;60835;50.974;10.322;2023-04-21T04:43:31;95442.22;;;6.54;100.00
72721;BME280;60835;50.974;10.322;2023-04-21T04:46:07;95450.28;;;6.59;100.00
72721;BME280;60835;50.974;10.322;2023-04-21T04:48:34;95460.97;;;6.57;100.00
72721;BME280;60835;50.974;10.322;2023-04-21T04:51:01;95458.97;;;6.53;100.00
72721;BME280;60835;50.974;10.322;2023-04-21T04:53:29;95464.22;;;6.53;100.00
72721;BME280;60835;50.974;10.322;2023-04-21T04:55:57;95466.03;;;6.59;100.00
72721;BME280;60835;50.974;10.322;2023-04-21T04:58:24;95470.66;;;6.57;100.00
72721;BME280;60835;50.974;10.322;2023-04-21T05:00:51;95479.75;;;6.54;100.00
72721;BME280;60835;50.974;10.322;2023-04-21T05:03:17;95475.91;;;6.57;100.00
72721;BME280;60835;50.974;10.322;2023-04-21T05:05:44;95487.63;;;6.54;100.00
72721;BME280;60835;50.974;10.322;2023-04-21T05:08:11;95504.81;;;6.50;100.00
72721;BME280;60835;50.974;10.322;2023-04-21T05:10:40;95500.19;;;6.59;100.00
72721;BME280;60835;50.974;10.322;2023-04-21T05:13:06;95508.84;;;6.59;100.00
72721;BME280;60835;50.974;10.322;2023-04-21T05:15:33;95520.16;;;6.60;100.00
72721;BME280;60835;50.974;10.322;2023-04-21T05:18:00;95517.34;;;6.68;100.00
72721;BME280;60835;50.974;10.322;2023-04-21T05:20:26;95535.13;;;6.72;100.00
72721;BME280;60835;50.974;10.322;2023-04-21T05:22:53;95547.28;;;6.67;100.00
72721;BME280;60835;50.974;10.322;2023-04-21T05:25:20;95553.13;;;6.69;100.00
72721;BME280;60835;50.974;10.322;2023-04-21T05:27:46;95562.59;;;6.70;100.00
72721;BME280;60835;50.974;10.322;2023-04-21T05:30:13;95564.25;;;6.84;100.00
72721;BME280;60835;50.974;10.322;2023-04-21T05:32:40;95585.28;;;6.78;100.00
72721;BME280;60835;50.974;10.322;2023-04-21T05:35:08;95595.38;;;6.87;100.00
72721;BME280;60835;50.974;10.322;2023-04-21T05:37:35;95604.47;;;6.91;100.00
72721;BME280;60835;50.974;10.322;2023-04-21T05:40:02;95626.09;;;6.87;100.00
72721;BME280;60835;50.974;10.322;2023-04-21T05:42:29;95630.56;;;6.99;100.00
72721;BME280;60835;50.974;10.322;2023-04-21T05:44:56;95656.06;;;6.99;100.00
72721;BME280;60835;50.974;10.322;2023-04-21T05:47:23;95675.88;;;7.08;100.00
72721;BME280;60835;50.974;10.322;2023-04-21T05:49:50;95717.06;;;6.94;100.00
72721;BME280;60835;50.974;10.322;2023-04-21T05:52:19;95710.66;;;7.03;100.00
72721;BME280;60835;50.974;10.322;2023-04-21T05:54:47;95734.88;;;6.92;100.00
72721;BME280;60835;50.974;10.322;2023-04-21T05:57:13;95739.34;;;6.98;100.00
72721;BME280;60835;50.974;10.322;2023-04-21T05:59:41;95741.78;;;7.06;100.00
72721;BME280;60835;50.974;10.322;2023-04-21T06:04:36;95747.31;;;7.24;100.00
72721;BME280;60835;50.974;10.322;2023-04-21T06:07:03;95772.38;;;7.27;100.00
72721;BME280;60835;50.974;10.322;2023-04-21T06:09:30;95791.44;;;7.35;100.00
72721;BME280;60835;50.974;10.322;2023-04-21T06:11:57;95829.25;;;7.34;100.00
72721;BME280;60835;50.974;10.322;2023-04-21T06:14:24;95833.91;;;7.39;100.00
72721;BME280;60835;50.974;10.322;2023-04-21T06:16:51;95849.50;;;7.41;100.00
72721;BME280;60835;50.974;10.322;2023-04-21T06:19:18;95833.41;;;7.89;100.00
72721;BME280;60835;50.974;10.322;2023-04-21T06:21:45;95910.31;;;7.72;100.00
72721;BME280;60835;50.974;10.322;2023-04-21T06:24:12;95927.19;;;7.97;100.00
72721;BME280;60835;50.974;10.322;2023-04-21T06:26:38;95933.56;;;8.35;100.00
72721;BME280;60835;50.974;10.322;2023-04-21T06:29:05;96038.72;;;8.30;100.00
72721;BME280;60835;50.974;10.322;2023-04-21T06:31:32;96109.75;;;8.17;100.00
72721;BME280;60835;50.974;10.322;2023-04-21T06:33:59;96121.91;;;8.18;100.00
72721;BME280;60835;50.974;10.322;2023-04-21T06:36:25;96171.91;;;7.84;100.00
72721;BME280;60835;50.974;10.322;2023-04-21T06:38:52;96160.41;;;7.85;100.00
72721;BME280;60835;50.974;10.322;2023-04-21T06:41:19;96135.63;;;8.07;100.00
72721;BME280;60835;50.974;10.322;2023-04-21T06:43:49;96133.47;;;8.17;100.00
72721;BME280;60835;50.974;10.322;2023-04-21T06:46:16;96151.56;;;8.27;100.00
72721;BME280;60835;50.974;10.322;2023-04-21T06:48:44;96111.88;;;9.02;100.00
72721;BME280;60835;50.974;10.322;2023-04-21T06:51:10;96214.41;;;9.44;100.00
72721;BME280;60835;50.974;10.322;2023-04-21T06:53:37;96277.38;;;10.65;100.00
72721;BME280;60835;50.974;10.322;2023-04-21T06:56:04;96513.97;;;10.69;100.00
72721;BME280;60835;50.974;10.322;2023-04-21T06:58:30;96626.06;;;10.81;100.00
72721;BME280;60835;50.974;10.322;2023-04-21T07:00:57;96752.63;;;10.84;100.00
72721;BME280;60835;50.974;10.322;2023-04-21T07:03:24;96797.47;;;11.53;100.00
72721;BME280;60835;50.974;10.322;2023-04-21T07:05:50;96895.69;;;12.18;100.00
72721;BME280;60835;50.974;10.322;2023-04-21T07:08:17;97004.50;;;11.63;100.00
72721;BME280;60835;50.974;10.322;2023-04-21T07:10:44;97033.47;;;11.37;100.00
72721;BME280;60835;50.974;10.322;2023-04-21T07:13:11;97060.34;;;13.17;100.00
72721;BME280;60835;50.974;10.322;2023-04-21T07:15:37;97215.00;;;13.25;100.00
72721;BME280;60835;50.974;10.322;2023-04-21T07:18:04;97295.06;;;14.22;100.00
72721;BME280;60835;50.974;10.322;2023-04-21T07:20:31;97389.34;;;13.46;100.00
72721;BME280;60835;50.974;10.322;2023-04-21T07:22:57;97417.13;;;13.09;100.00
72721;BME280;60835;50.974;10.322;2023-04-21T07:25:24;97399.81;;;14.08;100.00
72721;BME280;60835;50.974;10.322;2023-04-21T07:27:51;97453.63;;;13.69;100.00
72721;BME280;60835;50.974;10.322;2023-04-21T07:30:18;97509.16;;;14.33;100.00
72721;BME280;60835;50.974;10.322;2023-04-21T07:32:45;97514.44;;;13.85;100.00
72721;BME280;60835;50.974;10.322;2023-04-21T07:35:12;97545.44;;;13.37;100.00
72721;BME280;60835;50.974;10.322;2023-04-21T07:37:38;97530.09;;;13.67;100.00
72721;BME280;60835;50.974;10.322;2023-04-21T07:40:07;97467.63;;;14.51;100.00
72721;BME280;60835;50.974;10.322;2023-04-21T07:42:34;97519.53;;;15.21;100.00
72721;BME280;60835;50.974;10.322;2023-04-21T07:45:00;97549.00;;;14.93;100.00
72721;BME280;60835;50.974;10.322;2023-04-21T07:47:28;97559.91;;;14.38;100.00
72721;BME280;60835;50.974;10.322;2023-04-21T07:49:54;97574.09;;;14.45;100.00
72721;BME280;60835;50.974;10.322;2023-04-21T07:52:21;97563.34;;;14.92;100.00
72721;BME280;60835;50.974;10.322;2023-04-21T07:54:48;97532.81;;;15.73;100.00
72721;BME280;60835;50.974;10.322;2023-04-21T07:57:15;97540.03;;;15.27;100.00
72721;BME280;60835;50.974;10.322;2023-04-21T07:59:42;97541.44;;;15.36;100.00
72721;BME280;60835;50.974;10.322;2023-04-21T08:02:09;97525.63;;;15.67;100.00
72721;BME280;60835;50.974;10.322;2023-04-21T08:04:35;97513.88;;;16.01;100.00
72721;BME280;60835;50.974;10.322;2023-04-21T08:07:02;97526.09;;;15.51;100.00
72721;BME280;60835;50.974;10.322;2023-04-21T08:09:29;97520.69;;;15.91;100.00
72721;BME280;60835;50.974;10.322;2023-04-21T08:11:56;97515.31;;;15.97;100.00
72721;BME280;60835;50.974;10.322;2023-04-21T08:14:23;97490.28;;;15.92;100.00
72721;BME280;60835;50.974;10.322;2023-04-21T08:16:52;97476.03;;;16.62;100.00
72721;BME280;60835;50.974;10.322;2023-04-21T08:19:22;97466.66;;;16.46;100.00
72721;BME280;60835;50.974;10.322;2023-04-21T08:21:49;97474.19;;;16.18;100.00
72721;BME280;60835;50.974;10.322;2023-04-21T08:24:15;97442.50;;;16.97;100.00
72721;BME280;60835;50.974;10.322;2023-04-21T08:26:42;97422.94;;;16.72;100.00
72721;BME280;60835;50.974;10.322;2023-04-21T08:29:09;97408.47;;;17.29;100.00
72721;BME280;60835;50.974;10.322;2023-04-21T08:31:36;97400.03;;;17.68;100.00
72721;BME280;60835;50.974;10.322;2023-04-21T08:34:03;97407.38;;;16.93;100.00
72721;BME280;60835;50.974;10.322;2023-04-21T08:36:29;97437.19;;;16.28;100.00
72721;BME280;60835;50.974;10.322;2023-04-21T08:38:57;97421.00;;;17.10;100.00
72721;BME280;60835;50.974;10.322;2023-04-21T08:41:24;97418.91;;;17.12;100.00
72721;BME280;60835;50.974;10.322;2023-04-21T08:43:52;97411.88;;;17.36;100.00
72721;BME280;60835;50.974;10.322;2023-04-21T08:46:21;97396.69;;;17.73;100.00
72721;BME280;60835;50.974;10.322;2023-04-21T08:48:48;97406.94;;;17.39;100.00
72721;BME280;60835;50.974;10.322;2023-04-21T08:51:23;97411.84;;;16.75;100.00
72721;BME280;60835;50.974;10.322;2023-04-21T08:53:55;97400.63;;;17.70;100.00
72721;BME280;60835;50.974;10.322;2023-04-21T08:56:23;97404.94;;;18.49;100.00
72721;BME280;60835;50.974;10.322;2023-04-21T08:58:49;97432.38;;;18.74;100.00
72721;BME280;60835;50.974;10.322;2023-04-21T09:01:16;97411.03;;;18.26;100.00
72721;BME280;60835;50.974;10.322;2023-04-21T09:03:43;97452.41;;;15.76;100.00
72721;BME280;60835;50.974;10.322;2023-04-21T09:06:10;97387.78;;;18.91;100.00
72721;BME280;60835;50.974;10.322;2023-04-21T09:08:41;97443.69;;;17.44;100.00
72721;BME280;60835;50.974;10.322;2023-04-21T09:11:12;97486.16;;;18.61;100.00
72721;BME280;60835;50.974;10.322;2023-04-21T09:13:39;97445.47;;;18.04;100.00
72721;BME280;60835;50.974;10.322;2023-04-21T09:16:17;97956.50;;;17.16;100.00
72721;BME280;60835;50.974;10.322;2023-04-21T09:18:45;98249.19;;;18.90;100.00
72721;BME280;60835;50.974;10.322;2023-04-21T09:21:13;98450.50;;;17.61;100.00
72721;BME280;60835;50.974;10.322;2023-04-21T09:26:09;98598.38;;;17.06;100.00
72721;BME280;60835;50.974;10.322;2023-04-21T09:28:39;98574.53;;;18.15;100.00
72721;BME280;60835;50.974;10.322;2023-04-21T09:31:11;98566.88;;;18.12;100.00
72721;BME280;60835;50.974;10.322;2023-04-21T09:33:38;98525.00;;;17.09;100.00
72721;BME280;60835;50.974;10.322;2023-04-21T09:36:23;98622.56;;;18.23;100.00
72721;BME280;60835;50.974;10.322;2023-04-21T09:41:39;98732.53;;;19.38;100.00
72721;BME280;60835;50.974;10.322;2023-04-21T09:44:06;98738.34;;;19.55;100.00
72721;BME280;60835;50.974;10.322;2023-04-21T09:46:33;98704.06;;;18.14;100.00
72721;BME280;60835;50.974;10.322;2023-04-21T09:49:01;98576.78;;;17.50;100.00
72721;BME280;60835;50.974;10.322;2023-04-21T09:51:28;98604.31;;;17.23;100.00
72721;BME280;60835;50.974;10.322;2023-04-21T09:54:15;98583.63;;;17.59;100.00
72721;BME280;60835;50.974;10.322;2023-04-21T09:56:48;98684.13;;;18.51;100.00
72721;BME280;60835;50.974;10.322;2023-04-21T09:59:18;98664.31;;;17.84;100.00
72721;BME280;60835;50.974;10.322;2023-04-21T10:01:48;98600.72;;;17.16;100.00
72721;BME280;60835;50.974;10.322;2023-04-21T10:04:15;98592.22;;;17.05;100.00
72721;BME280;60835;50.974;10.322;2023-04-21T10:06:44;98590.31;;;17.70;100.00
72721;BME280;60835;50.974;10.322;2023-04-21T10:09:11;98631.75;;;18.14;100.00
72721;BME280;60835;50.974;10.322;2023-04-21T10:11:39;98577.94;;;17.20;100.00
72721;BME280;60835;50.974;10.322;2023-04-21T10:14:07;98607.72;;;17.59;100.00
72721;BME280;60835;50.974;10.322;2023-04-21T10:16:37;98585.13;;;16.41;100.00
72721;BME280;60835;50.974;10.322;2023-04-21T10:19:23;98634.13;;;18.31;100.00
72721;BME280;60835;50.974;10.322;2023-04-21T10:21:54;98682.91;;;17.92;100.00
72721;BME280;60835;50.974;10.322;2023-04-21T10:24:21;98686.94;;;19.71;100.00
72721;BME280;60835;50.974;10.322;2023-04-21T10:26:49;98704.63;;;19.19;100.00
72721;BME280;60835;50.974;10.322;2023-04-21T10:29:29;98721.22;;;19.69;100.00
72721;BME280;60835;50.974;10.322;2023-04-21T10:32:16;98703.44;;;19.41;100.00
72721;BME280;60835;50.974;10.322;2023-04-21T10:34:56;98733.47;;;19.17;100.00
72721;BME280;60835;50.974;10.322;2023-04-21T10:37:23;98725.97;;;20.45;100.00
72721;BME280;60835;50.974;10.322;2023-04-21T10:39:51;98756.16;;;20.34;100.00
72721;BME280;60835;50.974;10.322;2023-04-21T10:42:18;98760.63;;;19.01;100.00
72721;BME280;60835;50.974;10.322;2023-04-21T10:50:20;98759.59;;;20.81;100.00
72721;BME280;60835;50.974;10.322;2023-04-21T10:52:51;98768.41;;;21.52;100.00
72721;BME280;60835;50.974;10.322;2023-04-21T10:55:19;98789.19;;;19.82;100.00
72721;BME280;60835;50.974;10.322;2023-04-21T10:57:48;98789.66;;;21.98;100.00
72721;BME280;60835;50.974;10.322;2023-04-21T11:00:17;98772.34;;;21.11;100.00
72721;BME280;60835;50.974;10.322;2023-04-21T11:02:51;98751.75;;;20.73;100.00
72721;BME280;60835;50.974;10.322;2023-04-21T11:05:18;98748.50;;;20.05;100.00
72721;BME280;60835;50.974;10.322;2023-04-21T11:07:45;98739.97;;;18.89;100.00
72721;BME280;60835;50.974;10.322;2023-04-21T11:10:12;98733.44;;;20.43;100.00
72721;BME280;60835;50.974;10.322;2023-04-21T11:12:39;98729.09;;;20.29;100.00
72721;BME280;60835;50.974;10.322;2023-04-21T11:15:07;98748.84;;;21.32;100.00
72721;BME280;60835;50.974;10.322;2023-04-21T11:17:34;98744.97;;;20.50;100.00
72721;BME280;60835;50.974;10.322;2023-04-21T11:20:02;98754.22;;;21.69;100.00
72721;BME280;60835;50.974;10.322;2023-04-21T11:22:30;98747.84;;;21.95;100.00
72721;BME280;60835;50.974;10.322;2023-04-21T11:24:57;98759.94;;;21.48;100.00
72721;BME280;60835;50.974;10.322;2023-04-21T11:27:27;98749.25;;;20.78;100.00
72721;BME280;60835;50.974;10.322;2023-04-21T11:29:55;98766.31;;;21.54;100.00
72721;BME280;60835;50.974;10.322;2023-04-21T11:32:23;98757.81;;;20.09;100.00
72721;BME280;60835;50.974;10.322;2023-04-21T11:34:50;98754.69;;;20.64;100.00
72721;BME280;60835;50.974;10.322;2023-04-21T11:37:24;98749.00;;;21.43;100.00
72721;BME280;60835;50.974;10.322;2023-04-21T11:40:01;98741.38;;;20.76;100.00
72721;BME280;60835;50.974;10.322;2023-04-21T11:42:30;98741.88;;;19.94;100.00
72721;BME280;60835;50.974;10.322;2023-04-21T11:44:56;98733.91;;;20.85;100.00
72721;BME280;60835;50.974;10.322;2023-04-21T11:47:25;98730.88;;;21.95;100.00
72721;BME280;60835;50.974;10.322;2023-04-21T11:49:53;98735.72;;;21.48;100.00
72721;BME280;60835;50.974;10.322;2023-04-21T11:54:52;98718.53;;;19.56;100.00
72721;BME280;60835;50.974;10.322;2023-04-21T11:57:21;98717.28;;;19.65;100.00
72721;BME280;60835;50.974;10.322;2023-04-21T11:59:48;98717.00;;;19.27;100.00
72721;BME280;60835;50.974;10.322;2023-04-21T12:02:25;98717.91;;;19.40;100.00
72721;BME280;60835;50.974;10.322;2023-04-21T12:04:56;98713.69;;;19.18;100.00
72721;BME280;60835;50.974;10.322;2023-04-21T12:07:23;98711.19;;;20.81;100.00
72721;BME280;60835;50.974;10.322;2023-04-21T12:09:50;98704.50;;;19.67;100.00
72721;BME280;60835;50.974;10.322;2023-04-21T12:12:25;98709.69;;;19.88;100.00
72721;BME280;60835;50.974;10.322;2023-04-21T12:14:52;98714.56;;;20.50;100.00
72721;BME280;60835;50.974;10.322;2023-04-21T12:17:19;98715.41;;;21.14;100.00
72721;BME280;60835;50.974;10.322;2023-04-21T12:19:46;98733.63;;;19.76;100.00
72721;BME280;60835;50.974;10.322;2023-04-21T12:22:16;98705.97;;;19.69;100.00
72721;BME280;60835;50.974;10.322;2023-04-21T12:24:47;98705.09;;;19.62;100.00
72721;BME280;60835;50.974;10.322;2023-04-21T12:27:13;98706.78;;;19.96;100.00
72721;BME280;60835;50.974;10.322;2023-04-21T12:29:40;98707.25;;;20.83;100.00
72721;BME280;60835;50.974;10.322;2023-04-21T12:32:08;98712.97;;;22.00;100.00
72721;BME280;60835;50.974;10.322;2023-04-21T12:34:35;98713.97;;;22.06;100.00
72721;BME280;60835;50.974;10.322;2023-04-21T12:37:03;98699.75;;;20.92;100.00
72721;BME280;60835;50.974;10.322;2023-04-21T12:39:30;98703.25;;;20.15;100.00
72721;BME280;60835;50.974;10.322;2023-04-21T12:41:57;98695.25;;;21.61;100.00
72721;BME280;60835;50.974;10.322;2023-04-21T12:44:25;98701.75;;;22.03;100.00
72721;BME280;60835;50.974;10.322;2023-04-21T12:46:52;98701.59;;;22.23;100.00
72721;BME280;60835;50.974;10.322;2023-04-21T12:49:18;98698.88;;;21.73;100.00
72721;BME280;60835;50.974;10.322;2023-04-21T12:51:45;98714.97;;;20.67;100.00
72721;BME280;60835;50.974;10.322;2023-04-21T12:54:12;98702.22;;;20.36;100.00
72721;BME280;60835;50.974;10.322;2023-04-21T12:56:39;98701.75;;;20.58;100.00
72721;BME280;60835;50.974;10.322;2023-04-21T12:59:08;98702.41;;;20.98;100.00
72721;BME280;60835;50.974;10.322;2023-04-21T13:01:39;98694.63;;;22.15;100.00
72721;BME280;60835;50.974;10.322;2023-04-21T13:04:07;98694.25;;;22.48;100.00